Time;durP1;ratioP1;P1;durP2;ratioP2;P2;SDS_P1;SDS_P2;PMS_P1;PMS_P2;Temp;Humidity;BMP_temperature;BMP_pressure;BME280_temperature;BME280_humidity;BME280_pressure;Samples;Min_cycle;Max_cycle;Signal;HPM_P1;HPM_P2
2023/08/04 00:01:58;;;;;;;26.63;1.70;;;;;;;24.76;56.97;98596.72;7309362;19;129113;-40
2023/08/04 00:04:23;;;;;;;36.63;2.17;;;;;;;24.75;56.27;98601.16;7307434;19;129529;-40
2023/08/04 00:06:49;;;;;;;108.83;7.07;;;;;;;24.76;56.68;98597.50;7296234;19;130573;-39
2023/08/04 00:09:16;;;;;;;105.33;7.07;;;;;;;24.75;56.71;98601.16;7294608;19;130443;-41
2023/08/04 00:11:41;;;;;;;91.35;5.95;;;;;;;24.74;56.34;98599.53;7294150;19;131200;-39
2023/08/04 00:14:07;;;;;;;51.60;3.10;;;;;;;24.73;57.04;98605.75;7302989;19;130118;-40
2023/08/04 00:16:33;;;;;;;36.77;2.67;;;;;;;24.78;56.35;98607.84;7308004;19;130696;-40
2023/08/04 00:18:58;;;;;;;27.15;1.77;;;;;;;24.77;56.46;98614.09;7309481;19;129956;-41
2023/08/04 00:21:24;;;;;;;29.83;1.90;;;;;;;24.75;56.44;98605.56;7309068;19;129335;-40
2023/08/04 00:23:49;;;;;;;92.27;5.97;;;;;;;24.77;56.97;98608.84;7307725;19;129815;-43
2023/08/04 00:26:14;;;;;;;44.13;2.90;;;;;;;24.75;56.94;98595.88;7310110;19;130204;-40
2023/08/04 00:28:40;;;;;;;26.20;1.87;;;;;;;24.75;56.99;98592.44;7309516;19;129470;-39
2023/08/04 00:31:05;;;;;;;29.20;1.90;;;;;;;24.74;56.32;98593.44;7310107;19;129554;-39
2023/08/04 00:33:30;;;;;;;81.13;4.97;;;;;;;24.77;56.74;98600.94;7305381;19;130435;-39
2023/08/04 00:35:56;;;;;;;33.67;1.97;;;;;;;24.67;56.73;98580.19;7307324;19;129237;-39
2023/08/04 00:38:21;;;;;;;45.63;3.00;;;;;;;24.77;56.66;98590.44;7309084;19;130952;-39
2023/08/04 00:40:47;;;;;;;39.60;2.33;;;;;;;24.76;56.82;98594.09;7309255;19;129041;-39
2023/08/04 00:43:12;;;;;;;48.13;2.93;;;;;;;24.75;56.37;98606.41;7307588;19;131545;-39
2023/08/04 00:45:38;;;;;;;31.97;2.10;;;;;;;24.74;57.02;98593.44;7308582;19;129367;-39
2023/08/04 00:48:03;;;;;;;28.20;1.70;;;;;;;24.67;57.09;98593.34;7306414;19;129519;-39
2023/08/04 00:50:30;;;;;;;34.07;1.97;;;;;;;24.75;56.60;98610.84;7307736;19;129568;-39
2023/08/04 00:52:56;;;;;;;37.83;2.47;;;;;;;24.74;56.39;98614.47;7308482;19;129298;-40
2023/08/04 00:55:21;;;;;;;31.23;2.00;;;;;;;24.73;57.13;98615.44;7306240;19;130027;-39
2023/08/04 00:57:47;;;;;;;41.37;2.43;;;;;;;24.76;56.51;98607.22;7306737;19;129344;-39
2023/08/04 01:00:13;;;;;;;38.67;2.40;;;;;;;24.75;56.69;98605.56;7308357;19;130047;-40
2023/08/04 01:02:38;;;;;;;40.90;2.60;;;;;;;24.78;56.82;98619.16;7307754;19;129193;-39
2023/08/04 01:05:04;;;;;;;28.50;1.73;;;;;;;24.77;56.68;98624.63;7307366;19;130034;-40
2023/08/04 01:07:39;;;;;;;98.40;6.45;;;;;;;24.75;56.75;98621.34;7303801;19;129151;-39
2023/08/04 01:10:15;;;;;;;73.05;4.75;;;;;;;24.78;57.16;98620.97;7291408;19;131026;-39
2023/08/04 01:13:05;;;;;;;62.63;3.67;;;;;;;24.79;57.25;98627.88;7304409;19;130553;-39
2023/08/04 01:15:31;;;;;;;48.22;3.13;;;;;;;24.66;56.43;98623.22;7305340;19;129692;-39
2023/08/04 01:17:58;;;;;;;32.73;2.00;;;;;;;24.77;56.67;98635.97;7309653;19;128893;-40
2023/08/04 01:20:24;;;;;;;39.83;2.50;;;;;;;24.76;56.77;98629.06;7302284;19;130939;-40
2023/08/04 01:22:50;;;;;;;;;;;;;;;24.84;57.06;98636.84;7305195;19;129212;-39
2023/08/04 01:25:16;;;;;;;49.92;3.13;;;;;;;24.67;56.79;98629.31;7305171;19;129528;-39
2023/08/04 01:27:44;;;;;;;29.30;2.20;;;;;;;24.75;56.94;98652.91;7308169;19;129724;-40
2023/08/04 01:30:18;;;;;;;19.20;1.45;;;;;;;24.64;56.89;98641.00;7306292;19;130056;-40
2023/08/04 01:32:43;;;;;;;43.80;2.72;;;;;;;24.74;56.80;98674.94;7306839;19;129768;-40
2023/08/04 01:35:09;;;;;;;43.70;2.83;;;;;;;24.76;56.58;98686.09;7307762;19;130019;-40
2023/08/04 01:37:35;;;;;;;42.00;2.60;;;;;;;24.74;56.71;98674.94;7314508;19;129426;-40
2023/08/04 01:40:00;;;;;;;28.30;1.90;;;;;;;24.75;56.43;98666.03;7313317;19;129194;-40
2023/08/04 01:42:25;;;;;;;11.07;0.97;;;;;;;24.76;56.55;98659.81;7307946;19;130355;-40
2023/08/04 01:44:51;;;;;;;58.60;3.47;;;;;;;24.75;57.19;98668.66;7312453;19;130002;-40
2023/08/04 01:47:16;;;;;;;46.20;3.03;;;;;;;24.74;56.62;98660.00;7314996;19;129697;-39
2023/08/04 01:49:41;;;;;;;47.37;2.93;;;;;;;24.75;56.68;98652.91;7313836;19;129205;-39
2023/08/04 01:52:07;;;;;;;17.77;1.37;;;;;;;24.74;56.84;98654.72;7313758;19;129475;-39
2023/08/04 01:54:32;;;;;;;81.50;4.65;;;;;;;24.74;56.75;98657.34;7311458;19;129661;-40
2023/08/04 01:56:58;;;;;;;32.37;2.17;;;;;;;24.74;56.94;98667.03;7312481;19;129178;-39
2023/08/04 01:59:23;;;;;;;86.27;5.63;;;;;;;24.74;56.88;98651.28;7312455;19;130347;-39
2023/08/04 02:01:48;;;;;;;43.63;2.77;;;;;;;24.75;56.55;98650.25;7311355;19;129450;-39
2023/08/04 02:04:14;;;;;;;46.20;2.93;;;;;;;24.76;56.05;98646.66;7313985;19;129763;-40
2023/08/04 02:06:39;;;;;;;38.07;2.53;;;;;;;24.76;56.93;98644.81;7312428;19;129289;-39
2023/08/04 02:09:04;;;;;;;52.50;3.60;;;;;;;24.78;56.98;98655.16;7311493;19;129352;-39
2023/08/04 02:11:33;;;;;;;42.73;2.73;;;;;;;24.77;56.78;98650.91;7311748;19;130489;-39
2023/08/04 02:13:59;;;;;;;43.40;2.58;;;;;;;24.78;56.90;98657.78;7313764;19;129639;-39
2023/08/04 02:16:24;;;;;;;141.93;9.15;;;;;;;24.77;56.58;98664.88;7306732;19;129525;-39
2023/08/04 02:18:49;;;;;;;34.10;2.30;;;;;;;24.76;56.91;98668.47;7310884;19;130988;-39
2023/08/04 02:21:15;;;;;;;47.53;3.00;;;;;;;24.75;56.71;98680.00;7309808;19;129107;-39
2023/08/04 02:23:40;;;;;;;43.60;2.87;;;;;;;24.75;56.92;98682.63;7313510;19;129189;-40
2023/08/04 02:26:05;;;;;;;75.00;4.77;;;;;;;24.73;57.14;98670.66;7309927;19;129889;-39
2023/08/04 02:28:31;;;;;;;32.23;2.17;;;;;;;24.76;56.86;98675.56;7311990;19;130264;-39
2023/08/04 02:30:59;;;;;;;61.90;4.00;;;;;;;24.74;56.80;98675.75;7313052;19;130070;-39
2023/08/04 02:33:24;;;;;;;42.47;2.63;;;;;;;24.73;56.85;98665.41;7313898;19;131146;-39
2023/08/04 02:35:49;;;;;;;31.43;2.13;;;;;;;24.67;56.49;98663.47;7311214;19;129707;-40
2023/08/04 02:38:15;;;;;;;47.03;2.87;;;;;;;24.74;56.83;98677.56;7309688;19;129643;-39
2023/08/04 02:40:40;;;;;;;57.43;3.60;;;;;;;24.74;56.52;98661.78;7313281;19;129443;-40
2023/08/04 02:43:05;;;;;;;14.53;1.13;;;;;;;24.75;57.07;98660.78;7310119;19;130017;-39
2023/08/04 02:45:31;;;;;;;35.60;2.33;;;;;;;24.74;56.49;98675.75;7311360;19;129491;-39
2023/08/04 02:47:56;;;;;;;8.53;0.90;;;;;;;24.74;57.16;98678.38;7307259;19;129396;-39
2023/08/04 02:50:22;;;;;;;72.77;4.27;;;;;;;24.76;56.75;98670.31;7312202;19;129460;-40
2023/08/04 02:52:47;;;;;;;61.43;4.17;;;;;;;24.73;56.86;98675.91;7308932;19;131830;-39
2023/08/04 02:55:12;;;;;;;66.13;4.13;;;;;;;24.73;57.16;98692.50;7307964;19;132072;-39
2023/08/04 02:57:38;;;;;;;40.33;2.47;;;;;;;24.74;57.30;98688.91;7309320;19;129024;-39
2023/08/04 03:00:05;;;;;;;44.80;2.57;;;;;;;24.67;56.49;98681.88;7312566;19;129385;-39
2023/08/04 03:02:30;;;;;;;33.40;2.10;;;;;;;24.73;56.73;98705.66;7311150;19;129485;-39
2023/08/04 03:04:55;;;;;;;16.97;1.30;;;;;;;24.72;56.56;98711.09;7312365;19;129860;-39
2023/08/04 03:07:21;;;;;;;45.63;3.00;;;;;;;24.74;56.87;98706.47;7309498;19;129368;-39
2023/08/04 03:09:46;;;;;;;61.47;3.73;;;;;;;24.70;56.71;98702.56;7312755;19;129427;-40
2023/08/04 03:12:11;;;;;;;92.67;6.13;;;;;;;24.73;56.46;98704.81;7299265;19;130355;-39
2023/08/04 03:14:37;;;;;;;88.73;5.70;;;;;;;24.73;56.60;98718.78;7295683;19;130554;-40
2023/08/04 03:17:02;;;;;;;114.37;7.33;;;;;;;24.72;57.30;98718.97;7292529;19;130394;-40
2023/08/04 03:19:28;;;;;;;59.20;3.47;;;;;;;24.66;56.86;98701.28;7299370;19;131510;-39
2023/08/04 03:21:53;;;;;;;68.23;4.57;;;;;;;24.74;57.42;98715.19;7305976;19;130122;-38
2023/08/04 03:24:18;;;;;;;25.20;1.90;;;;;;;24.69;56.92;98706.22;7305460;19;129994;-39
2023/08/04 03:26:44;;;;;;;74.13;4.47;;;;;;;24.73;56.92;98718.78;7308434;19;130055;-39
2023/08/04 03:29:09;;;;;;;34.83;2.13;;;;;;;24.73;56.93;98724.06;7312588;19;129050;-40
2023/08/04 03:31:35;;;;;;;33.53;2.17;;;;;;;24.73;57.30;98728.50;7313451;19;129548;-40
2023/08/04 03:34:00;;;;;;;93.37;6.20;;;;;;;24.74;57.18;98724.88;7310488;19;129430;-39
2023/08/04 03:36:26;;;;;;;57.87;3.53;;;;;;;24.73;56.90;98728.50;7310880;19;129173;-39
2023/08/04 03:38:51;;;;;;;19.43;1.63;;;;;;;24.72;56.94;98724.25;7305634;19;130793;-39
2023/08/04 03:41:16;;;;;;;38.23;2.37;;;;;;;24.73;56.93;98716.16;7312268;19;129638;-40
2023/08/04 03:43:42;;;;;;;128.57;8.33;;;;;;;24.72;57.25;98725.06;7307347;19;129845;-39
2023/08/04 03:46:07;;;;;;;52.60;3.03;;;;;;;24.73;56.98;98728.50;7308170;19;130716;-39
2023/08/04 03:48:32;;;;;;;65.27;4.20;;;;;;;24.73;57.35;98733.75;7308807;19;129653;-39
2023/08/04 03:50:58;;;;;;;48.40;2.93;;;;;;;24.73;57.22;98728.50;7312928;19;129355;-40
2023/08/04 03:53:23;;;;;;;47.53;2.97;;;;;;;24.74;56.87;98738.03;7311549;19;129232;-39
2023/08/04 03:55:48;;;;;;;66.70;4.13;;;;;;;24.73;57.33;98744.25;7309085;19;130665;-39
2023/08/04 03:58:14;;;;;;;64.83;4.30;;;;;;;24.73;57.23;98741.63;7301539;19;129451;-39
2023/08/04 04:00:39;;;;;;;40.20;2.67;;;;;;;24.72;57.38;98753.16;7310901;19;129168;-39
2023/08/04 04:03:05;;;;;;;42.57;2.57;;;;;;;24.72;57.26;98753.97;7310611;19;130434;-40
2023/08/04 04:05:30;;;;;;;39.77;2.47;;;;;;;24.71;57.14;98762.06;7309010;19;129213;-40
2023/08/04 04:07:55;;;;;;;84.10;5.20;;;;;;;24.72;56.93;98761.88;7304304;19;129834;-39
2023/08/04 04:10:21;;;;;;;41.20;2.63;;;;;;;24.72;56.73;98768.94;7304448;19;129748;-39
2023/08/04 04:12:46;;;;;;;58.27;3.73;;;;;;;24.72;57.36;98758.41;7308261;19;129120;-39
2023/08/04 04:15:12;;;;;;;54.60;3.47;;;;;;;24.71;56.72;98767.31;7309740;19;130279;-39
2023/08/04 04:17:37;;;;;;;62.27;3.93;;;;;;;24.71;56.76;98767.31;7305546;19;129320;-40
2023/08/04 04:20:03;;;;;;;37.63;2.47;;;;;;;24.72;57.35;98775.00;7304917;19;129189;-40
2023/08/04 04:22:33;;;;;;;66.25;3.85;;;;;;;24.71;56.89;98773.34;7307533;19;129596;-39
2023/08/04 04:24:59;;;;;;;30.17;2.03;;;;;;;24.70;56.59;98766.47;7308315;19;128889;-40
2023/08/04 04:27:24;;;;;;;41.70;2.70;;;;;;;24.70;57.28;98765.66;7305956;19;129564;-40
2023/08/04 04:29:50;;;;;;;29.00;1.90;;;;;;;24.70;56.96;98763.03;7309437;19;129481;-39
2023/08/04 04:32:15;;;;;;;198.43;12.47;;;;;;;24.69;57.44;98769.28;7303878;19;129466;-39
2023/08/04 04:34:40;;;;;;;37.03;2.53;;;;;;;24.69;56.92;98764.03;7307912;19;130009;-40
2023/08/04 04:37:06;;;;;;;48.33;3.30;;;;;;;24.69;56.55;98774.56;7306003;19;129097;-39
2023/08/04 04:39:31;;;;;;;36.37;2.17;;;;;;;24.60;57.05;98759.81;7307464;19;131078;-40
2023/08/04 04:41:56;;;;;;;50.60;3.30;;;;;;;24.68;56.74;98768.47;7309906;19;129225;-39
2023/08/04 04:44:22;;;;;;;61.10;4.10;;;;;;;24.71;57.08;98772.56;7303480;19;130057;-39
2023/08/04 04:46:47;;;;;;;49.77;2.90;;;;;;;24.69;57.23;98772.75;7303890;19;130242;-38
2023/08/04 04:49:13;;;;;;;72.20;4.83;;;;;;;24.72;57.36;98776.81;7301909;19;130486;-39
2023/08/04 04:51:38;;;;;;;105.43;6.43;;;;;;;24.69;56.81;98769.28;7303116;19;131699;-39
2023/08/04 04:54:03;;;;;;;83.07;5.43;;;;;;;24.64;57.24;98761.09;7297897;19;130288;-39
2023/08/04 04:56:29;;;;;;;58.57;4.10;;;;;;;24.71;56.56;98777.81;7298925;19;129361;-39
2023/08/04 04:58:54;;;;;;;88.83;5.50;;;;;;;24.70;56.87;98787.50;7293041;19;131771;-40
2023/08/04 05:01:20;;;;;;;67.37;4.43;;;;;;;24.76;57.05;98786.00;7301553;19;130882;-39
2023/08/04 05:03:45;;;;;;;61.87;4.20;;;;;;;24.74;56.70;98777.47;7299255;19;130966;-39
2023/08/04 05:06:10;;;;;;;31.17;2.07;;;;;;;24.72;57.06;98782.06;7303902;19;129419;-40
2023/08/04 05:08:36;;;;;;;57.70;3.37;;;;;;;24.70;56.91;98792.78;7304820;19;129766;-39
2023/08/04 05:11:01;;;;;;;29.20;2.13;;;;;;;24.70;56.81;98797.19;7311888;19;130304;-39
2023/08/04 05:13:26;;;;;;;60.17;3.70;;;;;;;24.70;56.57;98797.19;7304891;19;129525;-40
2023/08/04 05:15:52;;;;;;;81.53;5.20;;;;;;;24.70;57.00;98791.94;7303996;19;129762;-39
2023/08/04 05:18:18;;;;;;;63.43;3.93;;;;;;;24.63;57.37;98777.84;7309315;19;129938;-39
2023/08/04 05:20:47;;;;;;;83.33;5.17;;;;;;;24.70;56.63;98802.47;7312588;19;129042;-39
2023/08/04 05:23:13;;;;;;;64.70;4.20;;;;;;;24.71;56.66;98806.75;7305931;19;130106;-40
2023/08/04 05:30:31;;;;;;;85.50;5.75;;;;;;;24.58;56.98;98817.00;7285748;19;129636;-70
2023/08/04 05:32:57;;;;;;;111.53;6.93;;;;;;;24.51;56.76;98824.75;7164516;19;3343777;-68
2023/08/04 05:35:22;;;;;;;85.30;5.43;;;;;;;24.43;57.83;98825.66;7330548;19;130041;-67
2023/08/04 05:37:47;;;;;;;138.40;8.53;;;;;;;24.43;57.64;98832.72;7325641;19;132378;-70
2023/08/04 05:40:13;;;;;;;63.13;3.63;;;;;;;24.41;57.47;98832.88;7340264;19;129070;-71
2023/08/04 05:42:38;;;;;;;61.67;3.93;;;;;;;24.42;57.41;98839.81;7338677;19;129287;-72
2023/08/04 05:45:04;;;;;;;48.80;3.37;;;;;;;24.41;57.48;98835.53;7346106;19;130722;-71
2023/08/04 05:47:29;;;;;;;47.97;2.90;;;;;;;24.41;57.72;98834.72;7347777;19;129733;-71
2023/08/04 05:49:54;;;;;;;30.43;1.90;;;;;;;24.41;57.98;98835.53;7344905;19;129070;-72
2023/08/04 05:52:20;;;;;;;58.47;3.40;;;;;;;24.41;57.82;98840.78;7340577;19;129111;-73
2023/08/04 05:54:45;;;;;;;48.80;2.87;;;;;;;24.39;58.13;98848.00;7346531;19;129008;-70
2023/08/04 05:57:10;;;;;;;71.37;4.20;;;;;;;24.41;57.87;98839.97;7337784;19;129596;-72
2023/08/04 05:59:36;;;;;;;63.50;3.80;;;;;;;24.43;57.78;98838.78;7345269;19;129291;-73
2023/08/04 06:02:01;;;;;;;85.93;5.33;;;;;;;24.45;57.33;98836.81;7345587;19;129115;-71
2023/08/04 06:04:27;;;;;;;47.70;2.70;;;;;;;24.47;57.80;98836.63;7346979;19;129397;-70
2023/08/04 06:06:52;;;;;;;40.33;2.77;;;;;;;24.46;57.46;98846.31;7346561;19;130095;-69
2023/08/04 06:09:17;;;;;;;71.17;3.90;;;;;;;24.48;57.55;98840.09;7345200;19;128849;-68
2023/08/04 06:11:43;;;;;;;57.13;3.53;;;;;;;24.48;56.98;98849.59;7345098;19;129443;-71
2023/08/04 06:14:08;;;;;;;43.63;3.10;;;;;;;24.51;57.13;98866.00;7345078;19;129016;-71
2023/08/04 06:16:33;;;;;;;25.43;1.73;;;;;;;24.52;56.81;98867.63;7343540;19;129347;-70
2023/08/04 06:18:59;;;;;;;33.87;2.23;;;;;;;24.52;56.59;98870.25;7344133;19;129795;-72
2023/08/04 06:21:24;;;;;;;58.67;3.53;;;;;;;24.51;56.94;98868.63;7344891;19;129670;-75
2023/08/04 06:23:49;;;;;;;45.03;2.80;;;;;;;24.54;57.05;98870.91;7345798;19;130917;-74
2023/08/04 06:26:15;;;;;;;31.77;2.27;;;;;;;24.55;56.77;98877.78;7348458;19;130569;-70
2023/08/04 06:28:40;;;;;;;41.30;2.63;;;;;;;24.53;56.74;98890.31;7343335;19;128964;-72
2023/08/04 06:31:06;;;;;;;50.63;3.47;;;;;;;24.52;56.81;98886.84;7345422;19;128842;-72
2023/08/04 06:33:31;;;;;;;100.80;6.70;;;;;;;24.57;57.10;98897.66;7338201;19;133145;-73
2023/08/04 06:35:57;;;;;;;104.27;6.33;;;;;;;24.55;56.86;98904.06;7321794;19;129206;-71
2023/08/04 06:38:22;;;;;;;137.03;9.27;;;;;;;24.58;57.25;98906.38;7329994;19;129920;-69
2023/08/04 06:40:47;;;;;;;115.87;7.53;;;;;;;24.57;57.48;98913.44;7320447;19;130309;-72
2023/08/04 06:43:13;;;;;;;60.87;3.97;;;;;;;24.58;57.51;98915.06;7305162;19;131039;-72
2023/08/04 06:45:38;;;;;;;72.10;4.70;;;;;;;24.56;57.29;98914.41;7316246;19;130167;-69
2023/08/04 06:48:03;;;;;;;108.83;6.60;;;;;;;24.59;57.61;98910.63;7311365;19;130429;-72
2023/08/04 06:50:29;;;;;;;119.57;6.87;;;;;;;24.59;57.19;98921.13;7298490;19;130532;-72
2023/08/04 06:52:54;;;;;;;66.23;3.73;;;;;;;24.51;58.11;98908.06;7307715;19;130183;-71
2023/08/04 06:55:20;;;;;;;37.03;2.40;;;;;;;24.59;57.42;98921.13;7314938;19;129348;-71
2023/08/04 06:57:45;;;;;;;71.07;4.13;;;;;;;24.60;57.82;98922.75;7316335;19;130003;-74
2023/08/04 07:00:10;;;;;;;52.23;3.23;;;;;;;24.61;57.89;98929.69;7315862;19;129340;-73
2023/08/04 07:02:36;;;;;;;158.93;9.43;;;;;;;24.59;58.12;98947.41;7312737;19;129501;-69
2023/08/04 07:05:03;;;;;;;70.43;4.13;;;;;;;24.56;58.03;98938.06;7317501;19;129934;-73
2023/08/04 07:09:59;;;;;;;69.07;4.47;;;;;;;24.55;58.23;98927.72;7303124;19;130246;-40
2023/08/04 07:12:25;;;;;;;47.90;3.47;;;;;;;24.59;58.30;98939.53;7300820;19;131684;-40
2023/08/04 07:14:50;;;;;;;62.03;4.30;;;;;;;24.57;58.08;98939.72;7304106;19;131056;-39
2023/08/04 07:17:15;;;;;;;72.70;4.90;;;;;;;24.58;58.12;98945.78;7305720;19;130514;-39
2023/08/04 07:19:41;;;;;;;43.30;2.87;;;;;;;24.58;58.60;98940.53;7312098;19;129105;-40
2023/08/04 07:22:06;;;;;;;66.17;4.57;;;;;;;24.49;58.58;98922.16;7307166;19;130224;-40
2023/08/04 07:24:31;;;;;;;66.80;4.53;;;;;;;24.60;58.79;98943.78;7307196;19;129622;-40
2023/08/04 07:26:57;;;;;;;83.17;5.90;;;;;;;24.57;58.68;98950.22;7305138;19;129400;-41
2023/08/04 07:29:22;;;;;;;70.23;4.70;;;;;;;24.59;58.70;98957.94;7302516;19;129070;-40
2023/08/04 07:31:47;;;;;;;72.03;4.97;;;;;;;24.59;58.13;98960.56;7305731;19;129804;-41
2023/08/04 07:34:12;;;;;;;73.93;4.93;;;;;;;24.56;58.20;98963.53;7303574;19;129366;-40
2023/08/04 07:36:38;;;;;;;34.20;2.77;;;;;;;24.59;58.45;98963.19;7308888;19;128996;-40
2023/08/04 07:39:03;;;;;;;51.70;3.33;;;;;;;24.60;58.60;98968.28;7313244;19;129146;-41
2023/08/04 07:41:29;;;;;;;36.20;2.77;;;;;;;24.61;58.93;98966.47;7307608;19;131386;-40
2023/08/04 07:43:54;;;;;;;37.30;2.80;;;;;;;24.58;58.36;98972.88;7312448;19;131071;-40
2023/08/04 07:46:24;;;;;;;39.87;2.87;;;;;;;24.58;58.81;98975.50;7315035;19;129594;-39
2023/08/04 07:48:51;;;;;;;44.15;3.42;;;;;;;24.58;58.88;98978.13;7310977;19;130120;-40
2023/08/04 07:51:16;;;;;;;41.78;2.83;;;;;;;24.60;58.53;98972.69;7309951;19;130775;-39
2023/08/04 07:53:42;;;;;;;53.00;3.83;;;;;;;24.58;59.04;98972.09;7308828;19;129926;-40
2023/08/04 07:56:07;;;;;;;62.40;4.40;;;;;;;24.58;58.68;98980.75;7313241;19;129390;-40
2023/08/04 07:58:32;;;;;;;107.30;6.77;;;;;;;24.58;58.54;98988.66;7303913;19;131381;-39
2023/08/04 08:00:58;;;;;;;54.80;3.87;;;;;;;24.56;58.79;98984.56;7305998;19;130060;-40
2023/08/04 08:03:23;;;;;;;65.33;3.93;;;;;;;24.48;58.77;98970.47;7313949;19;129508;-39
2023/08/04 08:05:49;;;;;;;69.53;4.33;;;;;;;24.60;59.15;98984.03;7309738;19;130418;-39
2023/08/04 08:08:16;;;;;;;33.67;2.43;;;;;;;24.57;59.21;98975.69;7311299;19;128982;-39
2023/08/04 08:10:42;;;;;;;76.30;5.32;;;;;;;24.61;59.20;98984.88;7305908;19;129554;-40
2023/08/04 08:13:07;;;;;;;69.93;4.83;;;;;;;24.58;58.67;98977.34;7306094;19;130101;-40
2023/08/04 08:15:33;;;;;;;40.17;3.03;;;;;;;24.60;58.90;98991.09;7308275;19;130847;-40
2023/08/04 08:17:59;;;;;;;46.27;3.23;;;;;;;24.62;58.55;98986.50;7314363;19;128942;-39
2023/08/04 08:20:24;;;;;;;68.57;4.77;;;;;;;24.56;58.59;98984.56;7308839;19;130367;-40
2023/08/04 08:22:49;;;;;;;16.20;1.63;;;;;;;24.59;59.34;98995.56;7313292;19;129131;-43
2023/08/04 08:25:15;;;;;;;65.03;4.67;;;;;;;24.59;58.83;98997.34;7310842;19;129508;-39
2023/08/04 08:27:40;;;;;;;40.37;2.97;;;;;;;24.59;58.96;99000.81;7311759;19;129668;-40
2023/08/04 08:30:06;;;;;;;64.83;4.50;;;;;;;24.56;59.14;98995.88;7310459;19;129988;-40
2023/08/04 08:32:31;;;;;;;42.50;3.33;;;;;;;24.56;58.92;99000.34;7312682;19;130337;-39
2023/08/04 08:34:57;;;;;;;58.47;4.40;;;;;;;24.53;58.63;98995.44;7310018;19;129238;-40
2023/08/04 08:37:22;;;;;;;55.67;3.83;;;;;;;24.57;59.36;98994.91;7311597;19;129907;-40
2023/08/04 08:39:47;;;;;;;99.50;6.80;;;;;;;24.56;59.30;99005.59;7300118;19;130431;-39
2023/08/04 08:42:13;;;;;;;159.83;10.33;;;;;;;24.60;58.54;98996.34;7294186;19;130473;-40
2023/08/04 08:44:38;;;;;;;122.90;8.27;;;;;;;24.57;59.33;98997.53;7295558;19;130041;-39
2023/08/04 08:47:04;;;;;;;100.30;6.50;;;;;;;24.62;59.07;98994.38;7296329;19;130221;-41
2023/08/04 08:49:37;;;;;;;72.73;5.17;;;;;;;24.61;59.71;98993.56;7294847;19;130905;-39
2023/08/04 08:52:07;;;;;;;46.35;3.55;;;;;;;24.65;59.70;98991.41;7301858;19;130789;-40
2023/08/04 08:54:34;;;;;;;77.55;5.55;;;;;;;24.54;58.87;98982.13;7306453;19;129137;-41
2023/08/04 08:56:59;;;;;;;89.22;6.28;;;;;;;24.52;58.54;98989.34;7311031;19;130092;-39
2023/08/04 08:59:26;;;;;;;71.07;4.83;;;;;;;24.64;58.75;98995.03;7307021;19;130687;-40
2023/08/04 09:01:52;;;;;;;51.03;3.65;;;;;;;24.62;58.29;98987.31;7311975;19;129357;-40
2023/08/04 09:04:19;;;;;;;87.55;5.70;;;;;;;24.58;58.41;98993.09;7307786;19;129163;-40
2023/08/04 09:06:44;;;;;;;58.65;4.05;;;;;;;24.60;59.25;98996.34;7312239;19;128929;-40
2023/08/04 09:09:10;;;;;;;30.00;2.80;;;;;;;24.59;58.93;99000.81;7308426;19;130125;-40
2023/08/04 09:11:35;;;;;;;63.40;4.93;;;;;;;24.56;58.80;98989.81;7311361;19;129157;-40
2023/08/04 09:14:02;;;;;;;50.77;3.90;;;;;;;24.58;59.21;98982.59;7310108;19;129250;-39
2023/08/04 09:16:36;;;;;;;37.80;2.92;;;;;;;24.58;59.38;98993.09;7309724;19;129086;-39
2023/08/04 09:19:04;;;;;;;69.03;5.15;;;;;;;24.58;59.04;98991.28;7308450;19;130189;-40
2023/08/04 09:21:31;;;;;;;36.17;3.05;;;;;;;24.57;58.97;98986.19;7311679;19;130520;-39
2023/08/04 09:23:56;;;;;;;48.47;3.72;;;;;;;24.55;58.65;98998.69;7311491;19;129054;-41
2023/08/04 09:26:22;;;;;;;25.07;2.43;;;;;;;24.59;58.95;99005.25;7310229;19;129004;-41
2023/08/04 09:29:04;;;;;;;43.60;3.50;;;;;;;24.60;59.98;99009.50;7310320;19;131573;-40
2023/08/04 09:31:45;;;;;;;37.63;2.90;;;;;;;24.57;59.09;99008.03;7310461;19;129520;-40
2023/08/04 09:34:10;;;;;;;76.40;5.57;;;;;;;24.60;58.92;99012.13;7306021;19;129863;-41
2023/08/04 09:36:43;;;;;;;43.23;3.33;;;;;;;24.57;59.13;99002.78;7310204;19;129009;-40
2023/08/04 09:39:09;;;;;;;49.85;3.78;;;;;;;24.56;58.78;99022.16;7309751;19;130322;-41
2023/08/04 09:41:39;;;;;;;65.07;4.47;;;;;;;24.55;59.16;99022.34;7309697;19;131144;-40
2023/08/04 09:44:06;;;;;;;35.25;2.92;;;;;;;24.56;59.16;99021.38;7311032;19;129354;-40
2023/08/04 09:46:31;;;;;;;31.80;2.67;;;;;;;24.58;59.06;99024.66;7311628;19;129996;-41
2023/08/04 09:48:58;;;;;;;33.90;3.03;;;;;;;24.61;59.31;99016.41;7310590;19;129184;-40
2023/08/04 09:51:24;;;;;;;38.75;3.03;;;;;;;24.53;58.05;98995.44;7309832;19;131179;-40
2023/08/04 09:53:52;;;;;;;45.37;3.43;;;;;;;24.61;58.90;99014.56;7312901;19;131243;-41
2023/08/04 09:56:18;;;;;;;78.95;5.35;;;;;;;24.61;57.90;99008.53;7307484;19;129079;-41
2023/08/04 09:58:45;;;;;;;68.45;4.95;;;;;;;24.60;58.20;99006.88;7301783;19;130654;-40
2023/08/04 10:01:11;;;;;;;82.68;5.85;;;;;;;24.58;58.78;99011.50;7297140;19;130936;-40
2023/08/04 10:03:42;;;;;;;33.03;2.40;;;;;;;24.56;58.57;99010.84;7309611;19;129057;-41
2023/08/04 10:06:09;;;;;;;40.22;2.92;;;;;;;24.55;57.71;99020.53;7307324;19;130519;-41
2023/08/04 10:08:42;;;;;;;38.72;2.65;;;;;;;24.54;58.15;99012.81;7310535;19;130829;-41
2023/08/04 10:11:08;;;;;;;31.13;2.50;;;;;;;24.55;59.06;99019.72;7303771;19;130339;-40
2023/08/04 10:13:37;;;;;;;37.00;2.72;;;;;;;24.56;58.45;99024.78;7307966;19;130523;-41
2023/08/04 10:16:06;;;;;;;38.78;2.55;;;;;;;24.55;59.05;99019.72;7312266;19;128946;-41
2023/08/04 10:18:47;;;;;;;75.38;4.93;;;;;;;24.55;59.19;99017.09;7316668;19;131589;-40
2023/08/04 10:21:12;;;;;;;46.47;3.08;;;;;;;24.53;58.64;99011.19;7314786;19;130301;-41
2023/08/04 10:23:38;;;;;;;51.83;3.53;;;;;;;24.53;58.89;99017.25;7316517;19;129033;-41
2023/08/04 10:26:03;;;;;;;52.37;3.50;;;;;;;24.52;58.65;99015.63;7313328;19;129574;-41
2023/08/04 10:28:32;;;;;;;61.10;3.97;;;;;;;24.54;58.90;99026.81;7312037;19;131546;-41
2023/08/04 10:31:10;;;;;;;29.60;2.15;;;;;;;24.56;59.36;99034.50;7313170;19;129261;-40
2023/08/04 10:33:36;;;;;;;49.38;3.33;;;;;;;24.55;58.96;99030.22;7316602;19;129290;-41
2023/08/04 10:36:08;;;;;;;50.43;3.30;;;;;;;24.48;59.09;99017.78;7316619;19;129588;-40
2023/08/04 10:38:46;;;;;;;58.95;4.00;;;;;;;24.54;59.12;99032.06;7316609;19;130185;-41
2023/08/04 10:41:12;;;;;;;57.05;3.53;;;;;;;24.52;58.35;99035.81;7312949;19;131245;-40
2023/08/04 10:43:39;;;;;;;52.47;3.40;;;;;;;24.48;58.62;99041.44;7315775;19;128930;-41
2023/08/04 10:46:10;;;;;;;40.42;2.90;;;;;;;24.49;59.43;99037.81;7315970;19;128990;-40
2023/08/04 10:48:40;;;;;;;50.75;3.45;;;;;;;24.48;59.47;99039.81;7316235;19;130942;-40
2023/08/04 10:51:09;;;;;;;117.03;7.38;;;;;;;24.46;59.44;99032.91;7301483;19;131304;-40
2023/08/04 10:53:35;;;;;;;76.20;5.07;;;;;;;24.46;59.30;99040.78;7301661;19;130865;-39
2023/08/04 10:56:04;;;;;;;106.47;6.87;;;;;;;24.46;59.44;99038.16;7307535;19;130538;-41
2023/08/04 10:58:29;;;;;;;92.40;5.85;;;;;;;24.44;59.04;99032.25;7309359;19;131008;-41
2023/08/04 11:00:56;;;;;;;109.17;6.70;;;;;;;24.48;59.38;99031.91;7306922;19;130721;-40
2023/08/04 11:03:29;;;;;;;60.75;3.97;;;;;;;24.48;59.55;99030.09;7308426;19;130397;-41
2023/08/04 11:05:56;;;;;;;115.22;7.22;;;;;;;24.47;59.77;99015.31;7310508;19;129938;-41
2023/08/04 11:08:23;;;;;;;99.67;6.67;;;;;;;24.44;59.62;99013.84;7306580;19;130820;-40
2023/08/04 11:10:50;;;;;;;38.00;2.65;;;;;;;24.41;59.31;99014.19;7313515;19;130363;-40
2023/08/04 11:13:18;;;;;;;65.30;4.28;;;;;;;24.45;58.96;99010.25;7306685;19;130133;-40
2023/08/04 11:15:44;;;;;;;62.17;4.22;;;;;;;24.44;58.70;99010.41;7314511;19;129055;-40
2023/08/04 11:18:31;;;;;;;34.40;2.50;;;;;;;24.46;60.21;99008.44;7307461;19;130109;-40
2023/08/04 11:21:00;;;;;;;81.35;5.30;;;;;;;24.42;59.90;99005.34;7305831;19;131084;-40